Time;durP1;ratioP1;P1;durP2;ratioP2;P2;SDS_P1;SDS_P2;PMS_P1;PMS_P2;Temp;Humidity;BMP_temperature;BMP_pressure;BME280_temperature;BME280_humidity;BME280_pressure;Samples;Min_cycle;Max_cycle;Signal;HPM_P1;HPM_P2
2024/04/15 00:00:41;;;;;;;2.53;1.25;;;;;;;8.80;73.86;97223.91;5561536;25;20037;-62
2024/04/15 00:03:07;;;;;;;2.50;1.38;;;;;;;8.62;75.07;97208.78;5559740;25;20339;-63
2024/04/15 00:05:33;;;;;;;2.10;1.30;;;;;;;8.57;75.82;97219.38;5559339;25;20031;-62
2024/04/15 00:07:59;;;;;;;1.80;1.70;;;;;;;8.46;76.89;97221.28;5498087;25;19996;-61
2024/04/15 00:10:25;;;;;;;1.23;1.13;;;;;;;8.36;76.91;97219.50;5559714;25;20354;-62
2024/04/15 00:12:53;;;;;;;2.95;1.58;;;;;;;8.24;77.30;97205.88;5561579;25;20008;-64
2024/04/15 00:15:19;;;;;;;1.85;1.70;;;;;;;8.13;77.92;97199.88;5559392;25;20001;-63
2024/04/15 00:17:45;;;;;;;3.78;1.92;;;;;;;8.03;78.92;97204.41;5560508;25;20050;-63
2024/04/15 00:20:11;;;;;;;5.20;2.78;;;;;;;7.95;79.29;97211.06;5561516;25;20338;-63
2024/04/15 00:22:36;;;;;;;3.75;2.00;;;;;;;7.87;80.62;97220.34;5559954;25;19993;-63
2024/04/15 00:25:03;;;;;;;2.13;1.67;;;;;;;7.87;81.16;97215.06;5561330;25;20030;-63
2024/04/15 00:27:30;;;;;;;2.40;1.52;;;;;;;7.77;81.96;97212.50;5561602;25;20033;-62
2024/04/15 00:29:56;;;;;;;4.80;1.48;;;;;;;7.69;82.29;97220.97;5561174;25;20001;-60
2024/04/15 00:32:24;;;;;;;1.65;1.48;;;;;;;7.67;83.34;97223.09;5559568;25;20004;-63
2024/04/15 00:34:50;;;;;;;2.95;1.50;;;;;;;7.60;82.85;97239.22;5561062;25;20131;-62
2024/04/15 00:37:16;;;;;;;1.95;1.42;;;;;;;7.57;83.03;97233.69;5560328;25;20003;-63
2024/04/15 00:39:43;;;;;;;1.67;1.42;;;;;;;7.55;83.35;97241.84;5564505;25;20005;-62
2024/04/15 00:42:09;;;;;;;2.38;1.40;;;;;;;7.54;82.93;97242.91;5564751;25;19993;-62
2024/04/15 00:44:37;;;;;;;2.10;1.50;;;;;;;7.52;82.91;97245.03;5564979;25;20025;-63
2024/04/15 00:47:03;;;;;;;2.13;1.30;;;;;;;7.46;83.19;97251.38;5564652;25;19992;-62
2024/04/15 00:49:32;;;;;;;3.83;1.60;;;;;;;7.41;83.52;97244.28;5562772;25;20490;-62
2024/04/15 00:51:59;;;;;;;2.65;1.30;;;;;;;7.40;82.42;97240.06;5563214;25;20007;-62
2024/04/15 00:54:26;;;;;;;2.92;1.38;;;;;;;7.37;82.76;97245.09;5562818;25;19997;-62
2024/04/15 00:56:52;;;;;;;3.33;1.60;;;;;;;7.32;82.39;97250.38;5564691;25;20003;-62
2024/04/15 00:59:18;;;;;;;4.45;1.52;;;;;;;7.33;82.26;97238.78;5564677;25;20005;-62
2024/04/15 01:01:46;;;;;;;2.97;1.50;;;;;;;7.49;83.10;97245.56;5562876;25;20466;-62
2024/04/15 01:04:12;;;;;;;1.70;1.30;;;;;;;7.55;82.19;97248.97;5564601;25;19993;-62
2024/04/15 01:06:38;;;;;;;1.50;1.40;;;;;;;7.55;82.16;97246.34;5531420;25;19997;-63
2024/04/15 01:09:03;;;;;;;1.50;1.40;;;;;;;7.49;82.01;97242.94;5562929;25;20026;-64
2024/04/15 01:11:29;;;;;;;3.42;1.45;;;;;;;7.43;82.33;97249.28;5564282;25;20001;-62
2024/04/15 01:13:55;;;;;;;1.40;1.30;;;;;;;7.42;82.42;97251.13;5564377;25;20009;-62
2024/04/15 01:16:21;;;;;;;1.40;1.30;;;;;;;7.38;82.68;97247.47;5562374;25;20000;-62
2024/04/15 01:18:47;;;;;;;2.08;1.30;;;;;;;7.31;82.86;97248.81;5563352;25;20477;-62
2024/04/15 01:21:12;;;;;;;1.73;1.30;;;;;;;7.22;83.67;97246.72;5564123;25;20308;-61
2024/04/15 01:23:39;;;;;;;1.50;1.40;;;;;;;7.14;84.34;97246.47;5562538;25;20008;-61
2024/04/15 01:26:05;;;;;;;5.90;1.75;;;;;;;7.04;85.25;97242.00;5563990;25;20009;-62
2024/04/15 01:28:31;;;;;;;2.30;1.30;;;;;;;6.99;85.58;97245.44;5564100;25;20068;-62
2024/04/15 01:30:56;;;;;;;2.63;1.92;;;;;;;6.93;86.35;97241.22;5564072;25;20018;-62
2024/04/15 01:33:22;;;;;;;4.93;3.20;;;;;;;6.88;86.69;97243.88;5561643;25;20046;-64
2024/04/15 01:35:48;;;;;;;2.72;1.80;;;;;;;6.83;86.97;97247.31;5500064;25;20001;-63
2024/04/15 01:38:14;;;;;;;2.58;1.40;;;;;;;6.76;87.30;97244.16;5563879;25;20281;-62
2024/04/15 01:40:39;;;;;;;4.38;1.70;;;;;;;6.70;87.63;97247.06;5563841;25;20012;-62
2024/04/15 01:43:05;;;;;;;2.00;1.50;;;;;;;6.65;87.79;97253.13;5563916;25;20474;-63
2024/04/15 01:45:31;;;;;;;3.45;1.50;;;;;;;6.59;87.87;97243.66;5563456;25;20072;-63
2024/04/15 01:47:58;;;;;;;3.08;1.80;;;;;;;6.54;87.65;97251.53;5561872;25;20011;-62
2024/04/15 01:50:24;;;;;;;4.22;1.48;;;;;;;6.50;87.86;97243.38;5529441;25;20012;-62
2024/04/15 01:52:49;;;;;;;4.40;1.33;;;;;;;6.45;87.54;97248.66;5562278;25;20050;-63
2024/04/15 01:55:15;;;;;;;3.85;1.60;;;;;;;6.40;87.10;97245.22;5563372;25;20469;-62
2024/04/15 01:57:42;;;;;;;3.70;1.45;;;;;;;6.34;87.17;97245.22;5562136;25;20446;-63
2024/04/15 02:00:08;;;;;;;1.92;1.40;;;;;;;6.32;87.17;97244.69;5561924;25;19997;-62
2024/04/15 02:02:40;;;;;;;2.03;1.67;;;;;;;6.29;86.76;97253.09;5562335;25;19992;-62
2024/04/15 02:05:08;;;;;;;2.50;1.55;;;;;;;6.22;86.25;97251.78;5561713;25;20016;-62
2024/04/15 02:07:36;;;;;;;3.45;1.40;;;;;;;6.20;86.34;97252.03;5563556;25;20007;-63
2024/04/15 02:10:02;;;;;;;4.57;1.40;;;;;;;6.10;86.19;97249.41;5563413;25;20013;-62
2024/04/15 02:12:31;;;;;;;3.30;1.50;;;;;;;6.08;86.11;97254.91;5561815;25;20057;-62
2024/04/15 02:14:57;;;;;;;1.50;1.30;;;;;;;6.05;85.86;97247.53;5563512;25;20039;-62
2024/04/15 02:17:23;;;;;;;2.83;1.50;;;;;;;6.01;85.88;97246.47;5561839;25;19993;-63
2024/04/15 02:20:09;;;;;;;3.15;1.70;;;;;;;5.96;85.27;97248.31;5535712;25;20040;-61
2024/04/15 02:22:35;;;;;;;2.50;1.40;;;;;;;5.94;85.70;97250.41;5562745;25;20008;-63
2024/04/15 02:25:03;;;;;;;5.00;1.58;;;;;;;5.86;85.71;97234.06;5563265;25;20000;-63
2024/04/15 02:27:35;;;;;;;3.90;1.55;;;;;;;5.92;85.76;97251.44;5561432;25;20064;-62
2024/04/15 02:30:02;;;;;;;4.03;1.50;;;;;;;5.93;85.44;97244.34;5563139;25;20506;-63
2024/04/15 02:32:31;;;;;;;4.30;1.42;;;;;;;5.93;85.66;97241.72;5563181;25;19997;-61
2024/04/15 02:34:57;;;;;;;5.10;1.75;;;;;;;5.92;85.71;97235.66;5561231;25;20018;-62
2024/04/15 02:37:23;;;;;;;2.72;1.40;;;;;;;5.93;85.87;97239.09;5560873;25;19997;-64
2024/04/15 02:39:48;;;;;;;7.05;1.98;;;;;;;6.00;85.76;97234.38;5562900;25;20000;-62
2024/04/15 02:42:14;;;;;;;1.80;1.60;;;;;;;6.17;85.09;97239.41;5562885;25;20489;-63
2024/04/15 02:44:40;;;;;;;3.70;1.73;;;;;;;6.41;84.43;97238.88;5561203;25;20012;-63
2024/04/15 02:47:06;;;;;;;4.53;1.70;;;;;;;6.65;83.47;97245.22;5563031;25;20353;-62
2024/04/15 02:49:32;;;;;;;5.88;1.90;;;;;;;6.89;82.68;97247.31;5561188;25;19993;-62
2024/04/15 02:51:57;;;;;;;5.25;2.10;;;;;;;7.09;81.46;97243.84;5560966;25;20000;-62
2024/04/15 02:54:23;;;;;;;4.45;1.83;;;;;;;7.32;80.43;97245.09;5562667;25;19993;-62
2024/04/15 02:56:49;;;;;;;2.90;2.17;;;;;;;7.49;79.31;97249.00;5562484;25;20004;-62
2024/04/15 02:59:15;;;;;;;5.78;2.22;;;;;;;7.60;78.24;97238.41;5562452;25;20010;-62
2024/04/15 03:01:40;;;;;;;3.28;1.80;;;;;;;7.80;76.90;97248.09;5559824;25;20042;-64
2024/04/15 03:04:06;;;;;;;3.30;1.65;;;;;;;7.88;76.02;97247.50;5563226;25;20529;-61
2024/04/15 03:06:32;;;;;;;2.47;1.83;;;;;;;8.15;76.94;97247.91;5562680;25;20349;-62
2024/04/15 03:08:58;;;;;;;4.03;1.90;;;;;;;8.19;74.40;97250.78;5562844;25;20286;-61
2024/04/15 03:11:23;;;;;;;6.82;1.60;;;;;;;8.36;74.90;97251.19;5560661;25;20011;-63
2024/04/15 03:13:49;;;;;;;2.05;1.40;;;;;;;8.51;73.44;97247.66;5562475;25;19997;-62
2024/04/15 03:16:15;;;;;;;2.63;1.70;;;;;;;8.52;72.54;97251.09;5560844;25;20065;-63
2024/04/15 03:18:41;;;;;;;1.95;1.73;;;;;;;8.57;72.83;97240.50;5560387;25;20008;-63
2024/04/15 03:21:07;;;;;;;2.75;1.50;;;;;;;8.63;73.12;97244.66;5562375;25;20069;-62
2024/04/15 03:23:33;;;;;;;4.57;1.70;;;;;;;8.73;72.37;97244.56;5562476;25;20319;-62
2024/04/15 03:25:59;;;;;;;2.40;1.50;;;;;;;8.84;72.44;97245.28;5562101;25;20005;-64
2024/04/15 03:28:24;;;;;;;1.65;1.55;;;;;;;8.93;72.79;97248.13;5561484;25;20005;-62
2024/04/15 03:30:50;;;;;;;2.25;1.40;;;;;;;8.97;71.09;97243.84;5560095;25;20008;-62
2024/04/15 03:33:16;;;;;;;1.85;1.48;;;;;;;9.00;71.13;97244.09;5560186;25;20064;-63
2024/04/15 03:35:42;;;;;;;2.03;1.70;;;;;;;9.09;71.29;97234.47;5561685;25;20011;-62
2024/04/15 03:38:08;;;;;;;2.13;1.50;;;;;;;9.17;71.12;97240.22;5560412;25;20003;-62
2024/04/15 03:40:34;;;;;;;2.85;1.60;;;;;;;9.17;71.55;97248.91;5561918;25;20489;-61
2024/04/15 03:43:02;;;;;;;4.95;1.77;;;;;;;9.32;71.70;97232.91;5562057;25;20461;-63
2024/04/15 03:45:32;;;;;;;5.13;1.70;;;;;;;9.45;70.36;97249.16;5561041;25;20000;-62
2024/04/15 03:47:58;;;;;;;1.90;1.30;;;;;;;9.55;69.28;97241.88;5560503;25;19996;-65
2024/04/15 03:50:24;;;;;;;3.08;1.60;;;;;;;9.74;69.37;97243.81;5561415;25;20016;-62
2024/04/15 03:52:54;;;;;;;3.75;1.50;;;;;;;9.87;68.79;97243.09;5561848;25;20046;-61
2024/04/15 03:55:20;;;;;;;2.35;1.40;;;;;;;9.99;68.41;97246.09;5559881;25;20076;-61
2024/04/15 03:57:46;;;;;;;2.83;1.60;;;;;;;10.16;68.80;97244.81;5561981;25;20395;-61
2024/04/15 04:00:12;;;;;;;4.72;1.35;;;;;;;10.27;67.04;97241.00;5561593;25;20005;-62
2024/04/15 04:02:38;;;;;;;3.08;1.55;;;;;;;10.29;66.75;97240.69;5561959;25;20107;-62
2024/04/15 04:05:05;;;;;;;2.42;1.63;;;;;;;10.30;65.57;97244.94;5559303;25;19993;-62
2024/04/15 04:07:32;;;;;;;1.70;1.50;;;;;;;10.35;65.50;97244.84;5561017;25;20000;-62
2024/04/15 04:09:58;;;;;;;3.90;1.60;;;;;;;10.52;66.42;97239.03;5560995;25;20020;-63
2024/04/15 04:12:24;;;;;;;3.00;1.60;;;;;;;10.68;66.35;97238.50;5558223;25;20347;-63
2024/04/15 04:14:51;;;;;;;1.85;1.52;;;;;;;10.60;65.17;97241.78;5577849;25;19996;-63
2024/04/15 04:17:17;;;;;;;3.72;1.92;;;;;;;10.56;65.05;97247.94;5593687;25;20063;-64
2024/04/15 04:19:43;;;;;;;2.72;1.38;;;;;;;10.64;65.18;97245.44;5597065;25;20004;-63
2024/04/15 04:22:09;;;;;;;4.88;1.60;;;;;;;10.72;64.99;97244.00;5597278;25;20000;-63
2024/04/15 04:24:34;;;;;;;3.03;1.50;;;;;;;10.84;64.65;97243.53;5596860;25;19988;-63
2024/04/15 04:27:03;;;;;;;2.17;1.52;;;;;;;10.87;62.37;97237.66;5563862;25;20058;-65
2024/04/15 04:29:32;;;;;;;5.28;1.63;;;;;;;10.88;62.43;97240.03;5594912;25;19996;-63
2024/04/15 04:31:58;;;;;;;3.17;1.60;;;;;;;10.93;62.20;97239.13;5594680;25;19996;-64
2024/04/15 04:34:24;;;;;;;4.85;1.65;;;;;;;10.77;62.15;97232.53;5595616;25;20006;-64
2024/04/15 04:36:50;;;;;;;2.75;1.75;;;;;;;10.72;63.23;97236.03;5596898;25;19996;-64
2024/04/15 04:39:15;;;;;;;1.65;1.30;;;;;;;10.78;62.55;97224.28;5598714;25;20003;-63
2024/04/15 04:41:41;;;;;;;1.58;1.38;;;;;;;10.65;61.40;97227.69;5594356;25;20000;-64
2024/04/15 04:44:07;;;;;;;1.65;1.40;;;;;;;10.57;61.70;97233.66;5565259;25;20401;-65
2024/04/15 04:46:33;;;;;;;3.05;1.63;;;;;;;10.52;62.49;97229.19;5598263;25;20007;-63
2024/04/15 04:48:58;;;;;;;1.70;1.50;;;;;;;10.48;62.95;97238.03;5597250;25;20397;-64
2024/04/15 04:51:25;;;;;;;2.50;1.50;;;;;;;10.23;63.69;97221.41;5577951;25;20001;-64
2024/04/15 04:53:51;;;;;;;5.40;1.60;;;;;;;10.22;62.86;97225.91;5561208;25;20068;-64
2024/04/15 04:56:16;;;;;;;3.47;1.65;;;;;;;10.24;63.56;97229.06;5558746;25;20009;-62
2024/04/15 04:58:43;;;;;;;5.80;1.60;;;;;;;10.30;63.59;97226.41;5560744;25;20034;-63
2024/04/15 05:01:16;;;;;;;7.45;1.70;;;;;;;10.34;62.83;97228.16;5560823;25;20015;-63
2024/04/15 05:03:47;;;;;;;3.05;1.58;;;;;;;10.32;62.55;97229.53;5560588;25;19996;-64
2024/04/15 05:06:13;;;;;;;;;;;;;;;10.12;63.11;97233.25;5561289;25;20011;-64
2024/04/15 05:08:39;;;;;;;4.15;1.50;;;;;;;10.01;63.01;97229.94;5560223;25;20371;-62
2024/04/15 05:11:05;;;;;;;4.63;1.60;;;;;;;9.72;63.56;97227.41;5559880;25;20005;-64
2024/04/15 05:13:32;;;;;;;3.13;1.90;;;;;;;9.70;63.97;97226.91;5560213;25;20003;-65
2024/04/15 05:16:07;;;;;;;5.00;1.60;;;;;;;9.60;63.59;97224.41;5559396;25;20009;-62
2024/04/15 05:18:34;;;;;;;3.58;2.20;;;;;;;9.50;63.76;97223.47;5558370;25;20015;-62
2024/04/15 05:21:00;;;;;;;3.38;1.70;;;;;;;9.53;64.42;97217.59;5560184;25;20001;-61
2024/04/15 05:23:27;;;;;;;3.00;1.30;;;;;;;9.69;65.13;97222.69;5560059;25;20012;-64
2024/04/15 05:25:57;;;;;;;4.78;1.70;;;;;;;9.73;64.33;97221.81;5561973;25;20011;-63
2024/04/15 05:28:23;;;;;;;;;;;;;;;9.87;62.69;97213.97;5529365;25;20001;-62
2024/04/15 05:30:52;;;;;;;4.50;1.45;;;;;;;9.93;62.42;97212.06;5559839;25;19964;-64
2024/04/15 05:33:18;;;;;;;4.50;1.40;;;;;;;9.88;61.96;97204.19;5559917;25;20008;-64
2024/04/15 05:35:44;;;;;;;6.07;1.92;;;;;;;9.84;62.29;97208.47;5526757;25;20000;-63
2024/04/15 05:38:10;;;;;;;4.88;1.40;;;;;;;9.75;60.50;97200.38;5560296;25;20003;-63
2024/04/15 05:40:36;;;;;;;3.03;1.40;;;;;;;9.67;61.30;97199.16;5559925;25;20012;-64
2024/04/15 05:43:05;;;;;;;3.17;1.48;;;;;;;9.67;61.00;97199.16;5561037;25;20377;-64
2024/04/15 05:45:30;;;;;;;6.97;1.83;;;;;;;9.69;60.31;97193.59;5561463;25;20016;-64
2024/04/15 05:47:59;;;;;;;3.60;1.48;;;;;;;9.53;60.17;97196.44;5563564;25;19996;-62
2024/04/15 05:50:24;;;;;;;2.60;1.58;;;;;;;9.59;60.27;97188.41;5563305;25;20459;-63
2024/04/15 05:52:51;;;;;;;5.68;1.30;;;;;;;9.66;60.58;97189.66;5563650;25;20005;-64
2024/04/15 05:55:16;;;;;;;2.55;1.52;;;;;;;9.61;60.49;97191.56;5562892;25;20004;-63
2024/04/15 05:57:43;;;;;;;3.33;1.80;;;;;;;9.46;60.25;97188.06;5563291;25;20008;-61
2024/04/15 06:00:11;;;;;;;3.20;1.50;;;;;;;9.45;58.83;97175.91;5561516;25;20001;-63
2024/04/15 06:02:40;;;;;;;6.38;1.63;;;;;;;9.37;57.77;97170.47;5563630;25;20011;-62
2024/04/15 06:05:07;;;;;;;3.40;1.33;;;;;;;9.40;58.02;97173.31;5561369;25;20005;-62
2024/04/15 06:07:33;;;;;;;2.97;1.23;;;;;;;9.43;58.15;97175.41;5562043;25;19993;-64
2024/04/15 06:09:58;;;;;;;6.40;1.83;;;;;;;9.55;57.38;97180.28;5563285;25;20004;-62
2024/04/15 06:12:25;;;;;;;2.85;1.55;;;;;;;9.57;58.95;97183.44;5563292;25;20064;-64
2024/04/15 06:14:52;;;;;;;2.88;1.50;;;;;;;9.63;57.65;97179.66;5552221;25;20364;-62
2024/04/15 06:17:18;;;;;;;3.58;1.33;;;;;;;9.63;56.47;97171.72;5462843;26;20002;-61
2024/04/15 06:19:44;;;;;;;5.55;1.75;;;;;;;9.78;56.57;97160.91;5519470;26;20053;-63
2024/04/15 06:22:10;;;;;;;5.07;1.45;;;;;;;9.89;56.76;97172.16;5525900;25;20451;-63
2024/04/15 06:24:36;;;;;;;3.83;1.42;;;;;;;10.11;55.75;97170.75;5498221;25;19997;-62
2024/04/15 06:27:02;;;;;;;4.88;1.48;;;;;;;10.31;55.79;97164.41;5525624;25;20001;-64
2024/04/15 06:29:28;;;;;;;3.30;1.40;;;;;;;10.25;55.32;97155.72;5525013;25;20076;-63
2024/04/15 06:31:53;;;;;;;5.88;1.80;;;;;;;10.23;53.86;97163.16;5524027;26;20001;-62
2024/04/15 06:34:21;;;;;;;4.32;1.55;;;;;;;10.25;52.94;97166.31;5524599;25;20454;-65
2024/04/15 06:36:48;;;;;;;5.65;1.50;;;;;;;10.41;52.65;97156.28;5524839;25;20029;-62
2024/04/15 06:39:14;;;;;;;3.83;1.80;;;;;;;10.73;53.30;97152.03;5492935;26;20350;-63
2024/04/15 06:41:40;;;;;;;2.92;1.83;;;;;;;10.99;53.02;97153.13;5523479;25;20374;-63
2024/04/15 06:44:06;;;;;;;5.13;1.70;;;;;;;11.15;52.84;97158.94;5525166;25;20387;-62
2024/04/15 06:46:32;;;;;;;2.92;1.38;;;;;;;11.00;50.68;97152.06;5524654;25;20074;-63
2024/04/15 06:48:58;;;;;;;4.00;1.45;;;;;;;10.77;49.63;97155.69;5525157;25;20013;-62
2024/04/15 06:51:24;;;;;;;3.50;1.52;;;;;;;10.57;50.24;97154.19;5545099;25;20072;-63
2024/04/15 06:53:50;;;;;;;4.18;1.30;;;;;;;10.30;49.78;97162.84;5542630;25;20029;-63
2024/04/15 06:56:16;;;;;;;3.45;1.25;;;;;;;10.31;49.81;97161.75;5523442;25;20354;-61
2024/04/15 06:58:43;;;;;;;4.03;1.40;;;;;;;10.27;49.92;97164.19;5524798;25;20033;-62
2024/04/15 07:01:09;;;;;;;2.60;1.50;;;;;;;10.40;50.95;97160.00;5524967;25;20005;-62
2024/04/15 07:03:35;;;;;;;6.15;1.70;;;;;;;10.46;50.49;97167.56;5524593;25;20358;-62
2024/04/15 07:06:01;;;;;;;2.80;1.30;;;;;;;10.49;50.87;97158.25;5524952;25;20009;-62
2024/04/15 07:08:26;;;;;;;7.22;1.88;;;;;;;10.44;50.78;97161.00;5524264;25;20475;-61
2024/04/15 07:10:52;;;;;;;9.27;1.70;;;;;;;10.45;50.43;97162.59;5522699;26;20021;-60
2024/04/15 07:13:18;;;;;;;5.70;1.90;;;;;;;10.45;50.97;97159.94;5523942;25;20455;-62
2024/04/15 07:15:46;;;;;;;3.35;1.50;;;;;;;10.56;50.11;97161.34;5523970;25;20005;-61
2024/04/15 07:18:12;;;;;;;5.40;1.58;;;;;;;10.60;49.28;97157.03;5522909;25;20391;-64
2024/04/15 07:20:38;;;;;;;9.23;1.73;;;;;;;10.49;47.90;97168.88;5522522;26;19997;-62
2024/04/15 07:23:04;;;;;;;4.97;1.50;;;;;;;10.73;48.95;97165.28;5524394;25;20073;-62
2024/04/15 07:25:29;;;;;;;5.70;1.60;;;;;;;10.93;48.98;97167.56;5524264;25;20002;-62
2024/04/15 07:27:55;;;;;;;5.10;1.65;;;;;;;10.89;48.80;97166.59;5491753;25;20140;-62
2024/04/15 07:30:21;;;;;;;6.50;1.50;;;;;;;10.97;48.66;97160.63;5522748;26;20013;-63
2024/04/15 07:32:52;;;;;;;4.15;1.60;;;;;;;10.80;48.14;97155.88;5464472;25;20065;-62
2024/04/15 07:35:18;;;;;;;2.92;1.05;;;;;;;10.60;47.54;97159.66;5524259;25;20046;-62
2024/04/15 07:37:47;;;;;;;3.60;1.60;;;;;;;10.59;46.98;97160.75;5522654;25;20005;-62
2024/04/15 07:40:13;;;;;;;5.35;1.73;;;;;;;10.74;47.91;97161.56;5522779;26;20017;-61
2024/04/15 07:42:41;;;;;;;6.20;1.77;;;;;;;10.83;46.98;97160.59;5524120;25;20008;-63
2024/04/15 07:45:09;;;;;;;;;;;;;;;11.00;47.59;97161.88;5492845;26;20070;-62
2024/04/15 07:47:34;;;;;;;7.75;1.77;;;;;;;10.99;47.71;97161.09;5523048;26;20373;-61
2024/04/15 07:50:00;;;;;;;5.40;1.48;;;;;;;10.96;47.81;97153.72;5522604;26;19998;-62
2024/04/15 07:52:26;;;;;;;4.95;2.00;;;;;;;11.07;47.93;97155.09;5558425;25;20407;-64
2024/04/15 07:54:54;;;;;;;3.08;1.50;;;;;;;11.17;46.22;97155.97;5525887;25;19998;-62
2024/04/15 07:57:20;;;;;;;4.82;1.55;;;;;;;11.30;45.96;97161.28;5523995;25;19994;-63
2024/04/15 07:59:47;;;;;;;4.68;1.58;;;;;;;11.45;47.04;97152.22;5523683;25;19997;-63
2024/04/15 08:02:13;;;;;;;7.68;1.67;;;;;;;11.60;46.48;97149.25;5522429;26;20503;-62
2024/04/15 08:04:38;;;;;;;3.35;1.25;;;;;;;11.50;45.41;97141.53;5555224;25;20004;-61
2024/04/15 08:07:04;;;;;;;2.92;1.40;;;;;;;11.35;45.03;97152.44;5561347;25;20004;-62
2024/04/15 08:09:30;;;;;;;5.90;1.55;;;;;;;11.29;45.69;97143.78;5561253;25;20009;-61
2024/04/15 08:11:56;;;;;;;7.35;2.05;;;;;;;11.21;45.57;97154.31;5561707;25;20061;-60
2024/04/15 08:14:22;;;;;;;7.13;1.70;;;;;;;11.22;45.55;97147.94;5558276;25;20011;-61
2024/04/15 08:16:48;;;;;;;7.55;1.63;;;;;;;11.35;46.44;97147.13;5560873;25;19996;-63
2024/04/15 08:19:14;;;;;;;5.10;1.38;;;;;;;11.55;45.02;97149.34;5533560;25;20022;-63
2024/04/15 08:21:41;;;;;;;6.63;1.52;;;;;;;11.38;44.62;97143.88;5521872;25;20009;-64
2024/04/15 08:24:06;;;;;;;3.92;1.33;;;;;;;11.44;44.97;97136.59;5505048;25;19994;-63
2024/04/15 08:26:33;;;;;;;5.65;1.67;;;;;;;11.26;44.12;97133.78;5518259;26;20005;-62
2024/04/15 08:29:02;;;;;;;3.03;1.48;;;;;;;11.18;44.97;97139.78;5540961;25;20057;-62
2024/04/15 08:31:28;;;;;;;5.18;1.75;;;;;;;11.24;44.82;97148.44;5557212;25;20015;-63
2024/04/15 08:33:54;;;;;;;6.38;2.05;;;;;;;11.33;44.96;97133.38;5534640;25;20455;-62
2024/04/15 08:36:20;;;;;;;3.88;1.30;;;;;;;11.33;44.91;97133.38;5521142;25;19994;-63
2024/04/15 08:38:46;;;;;;;4.40;1.83;;;;;;;11.54;44.94;97142.47;5523409;25;20461;-61
2024/04/15 08:41:20;;;;;;;4.20;1.55;;;;;;;11.64;44.18;97149.44;5521558;26;19997;-62
2024/04/15 08:43:47;;;;;;;4.53;1.80;;;;;;;11.78;43.51;97146.75;5521391;25;20351;-62
2024/04/15 08:46:24;;;;;;;3.80;1.52;;;;;;;11.63;44.86;97131.94;5523151;25;20012;-63
2024/04/15 08:48:51;;;;;;;7.07;1.50;;;;;;;11.70;44.76;97148.22;5558761;25;20009;-63
2024/04/15 08:51:17;;;;;;;5.05;1.38;;;;;;;11.86;45.33;97146.06;5521250;26;20005;-63
2024/04/15 08:53:42;;;;;;;3.90;1.92;;;;;;;11.88;44.77;97146.53;5522933;25;20420;-61
2024/04/15 08:56:10;;;;;;;5.93;1.50;;;;;;;12.02;44.99;97139.31;5523154;25;20458;-61
2024/04/15 08:58:37;;;;;;;3.45;1.58;;;;;;;11.92;44.06;97134.25;5522249;25;20091;-62
2024/04/15 09:01:05;;;;;;;5.38;1.83;;;;;;;11.63;43.52;97139.13;5526907;25;20006;-63
2024/04/15 09:03:30;;;;;;;4.93;1.50;;;;;;;11.48;44.15;97134.94;5494155;26;19997;-62
2024/04/15 09:05:57;;;;;;;2.10;1.50;;;;;;;11.20;44.31;97142.91;5526526;25;20013;-62
2024/04/15 09:08:22;;;;;;;4.93;1.50;;;;;;;11.18;44.86;97144.28;5530509;25;20080;-63
2024/04/15 09:10:48;;;;;;;9.98;1.60;;;;;;;11.02;45.11;97133.19;5529770;25;20044;-63
2024/04/15 09:13:15;;;;;;;5.43;1.80;;;;;;;10.96;46.29;97129.09;5559393;25;20000;-64
2024/04/15 09:15:41;;;;;;;5.18;1.65;;;;;;;10.86;45.85;97132.72;5526225;25;20347;-62
2024/04/15 09:18:09;;;;;;;5.70;1.55;;;;;;;10.80;46.40;97139.97;5526167;25;20001;-63
2024/04/15 09:20:37;;;;;;;3.80;1.73;;;;;;;10.96;47.94;97132.50;5526556;25;20016;-62
2024/04/15 09:23:08;;;;;;;4.95;1.65;;;;;;;10.99;46.63;97131.94;5436415;25;20005;-62
2024/04/15 09:25:34;;;;;;;5.10;1.75;;;;;;;11.28;46.67;97123.66;5563749;25;20012;-62
2024/04/15 09:28:04;;;;;;;4.32;1.75;;;;;;;11.48;46.47;97122.44;5562890;25;19992;-63
2024/04/15 09:30:31;;;;;;;3.63;1.27;;;;;;;11.60;45.65;97125.38;5526522;25;20024;-63
2024/04/15 09:32:58;;;;;;;6.03;2.42;;;;;;;11.73;45.44;97123.75;5526794;25;19998;-65
2024/04/15 09:35:26;;;;;;;4.32;1.45;;;;;;;11.83;45.71;97112.13;5526169;25;20157;-63
2024/04/15 09:37:55;;;;;;;3.90;1.60;;;;;;;11.83;45.01;97117.44;5526269;25;19994;-61
2024/04/15 09:40:25;;;;;;;2.40;1.38;;;;;;;11.79;45.95;97114.63;5530212;25;20024;-62
2024/04/15 09:42:52;;;;;;;4.30;1.67;;;;;;;11.75;45.24;97104.88;5563852;25;19993;-62
2024/04/15 09:45:18;;;;;;;4.05;1.70;;;;;;;11.56;45.75;97111.13;5563016;25;20080;-62
2024/04/15 09:47:46;;;;;;;5.22;1.80;;;;;;;11.36;46.00;97109.69;5531069;25;20072;-63
2024/04/15 09:50:12;;;;;;;4.05;1.60;;;;;;;11.17;45.95;97106.38;5494862;25;20005;-62
2024/04/15 09:52:40;;;;;;;4.68;1.50;;;;;;;11.10;46.50;97116.63;5563557;25;20004;-62
2024/04/15 09:55:08;;;;;;;4.45;1.63;;;;;;;11.00;46.92;97109.66;5527775;25;20001;-63
2024/04/15 09:57:41;;;;;;;6.72;1.77;;;;;;;11.00;47.08;97112.31;5526014;25;20347;-63
2024/04/15 10:00:12;;;;;;;4.55;1.92;;;;;;;11.02;47.19;97114.66;5525733;25;20415;-62
2024/04/15 10:02:53;;;;;;;5.68;2.22;;;;;;;10.96;47.27;97116.59;5523920;26;19998;-62
2024/04/15 10:05:25;;;;;;;4.63;1.77;;;;;;;10.88;47.07;97104.84;5524967;25;19998;-62
2024/04/15 10:07:54;;;;;;;2.85;1.50;;;;;;;10.70;47.40;97092.44;5525988;25;20025;-63
2024/04/15 10:10:20;;;;;;;5.38;1.77;;;;;;;10.68;47.54;97115.81;5523470;25;20156;-62
2024/04/15 10:12:55;;;;;;;5.22;1.55;;;;;;;10.72;47.86;97113.38;5525565;25;19993;-63
2024/04/15 10:15:22;;;;;;;2.85;1.50;;;;;;;10.56;48.16;97118.16;5525274;25;20028;-63
2024/04/15 10:18:10;;;;;;;5.22;1.35;;;;;;;10.56;49.92;97126.09;5525828;25;20462;-63
2024/04/15 10:20:58;;;;;;;3.90;1.60;;;;;;;10.54;50.02;97121.09;5492318;25;20016;-63
2024/04/15 10:23:31;;;;;;;4.95;1.60;;;;;;;10.22;49.97;97127.19;5522157;25;20020;-62
2024/04/15 10:25:57;;;;;;;5.93;1.75;;;;;;;10.19;50.27;97125.09;5463951;26;20423;-63
2024/04/15 10:28:23;;;;;;;6.43;1.50;;;;;;;10.13;51.18;97121.75;5523966;25;20013;-64
2024/04/15 10:30:49;;;;;;;6.70;2.08;;;;;;;10.18;50.85;97123.56;5523789;26;20077;-61
2024/04/15 10:33:15;;;;;;;3.25;1.33;;;;;;;10.31;50.89;97114.88;5525314;25;20017;-62
2024/04/15 10:35:44;;;;;;;2.75;1.40;;;;;;;10.51;51.04;97115.59;5525175;25;19998;-63
2024/04/15 10:38:11;;;;;;;4.18;1.35;;;;;;;10.68;50.16;97111.31;5534556;25;20011;-62
2024/04/15 10:40:44;;;;;;;5.28;1.65;;;;;;;10.92;49.33;97107.69;5560621;25;20067;-63
2024/04/15 10:43:14;;;;;;;3.05;1.40;;;;;;;11.00;49.39;97107.00;5561616;25;20084;-61
2024/04/15 10:45:40;;;;;;;4.22;1.50;;;;;;;11.02;49.20;97102.16;5529521;25;19997;-61
2024/04/15 10:48:06;;;;;;;3.92;1.33;;;;;;;11.23;49.07;97093.81;5553925;25;20037;-62
2024/04/15 10:50:32;;;;;;;5.78;1.58;;;;;;;11.30;48.50;97096.84;5531750;25;20001;-63
2024/04/15 10:52:58;;;;;;;9.77;1.88;;;;;;;11.13;47.88;97094.81;5522927;26;20362;-61
2024/04/15 10:55:24;;;;;;;5.05;1.75;;;;;;;11.25;48.14;97091.66;5525999;25;20005;-62
2024/04/15 10:57:50;;;;;;;3.70;1.90;;;;;;;11.41;48.69;97090.22;5542738;25;20009;-64
2024/04/15 11:00:18;;;;;;;5.22;1.42;;;;;;;11.30;47.19;97094.19;5540273;25;20020;-61
2024/04/15 11:02:45;;;;;;;4.32;1.77;;;;;;;11.16;47.58;97098.75;5543694;25;20373;-61
2024/04/15 11:05:12;;;;;;;3.58;1.77;;;;;;;11.10;48.12;97088.22;5541459;25;20005;-63
2024/04/15 11:07:42;;;;;;;3.33;1.55;;;;;;;11.01;47.88;97105.91;5523672;25;20470;-63
2024/04/15 11:10:10;;;;;;;5.28;1.40;;;;;;;10.85;49.45;97088.72;5513546;25;20231;-63
2024/04/15 11:12:36;;;;;;;3.63;1.45;;;;;;;10.66;50.16;97086.19;5541209;25;20012;-63
2024/04/15 11:15:03;;;;;;;4.10;1.77;;;;;;;10.56;50.33;97089.00;5542734;25;20069;-63
2024/04/15 11:17:31;;;;;;;5.47;1.77;;;;;;;10.63;49.89;97084.91;5541424;25;20005;-62
2024/04/15 11:20:01;;;;;;;4.13;1.70;;;;;;;10.78;49.76;97088.34;5553292;25;20089;-61
2024/04/15 11:22:27;;;;;;;7.85;1.55;;;;;;;10.82;49.29;97091.97;5561771;25;20427;-63
2024/04/15 11:24:53;;;;;;;5.97;1.67;;;;;;;10.65;49.24;97082.75;5525305;25;20068;-63
2024/04/15 11:27:19;;;;;;;3.83;1.77;;;;;;;10.86;50.23;97090.31;5523072;26;19997;-61
2024/04/15 11:29:46;;;;;;;2.80;1.60;;;;;;;11.40;49.22;97086.00;5524360;25;20020;-59
2024/04/15 11:32:13;;;;;;;5.85;2.05;;;;;;;11.50;47.85;97088.47;5492485;26;19998;-62
2024/04/15 11:34:38;;;;;;;7.55;1.67;;;;;;;11.46;47.79;97076.06;5522359;25;20005;-64
2024/04/15 11:37:04;;;;;;;7.03;1.52;;;;;;;11.53;48.58;97074.59;5523008;26;19993;-65